»·PEaware :: N6009M KFUL-KSBP

N6009M :: KFUL-KSBP

FLIGHT INFORMATION

Flight Status: Arrived
Operator: Privately registered:
United States
More flights under this callsign
Pilot: Zuqi C. (19949)
Aircraft: CESSNA 510 CITATION MUSTANG
(C510)
More flights by this aircraft type
Origin: KFUL Fullerton Mun
United States
Destination: KSBP San Luis Co Regl
United States
More flights between these airports :: More routes between these airports
Route: +LAX VTU RZS MQO
File this flight plan on PilotEdge
Remarks:
Altitude:
(Current/Filed)
24,000ft
Speed:
(Current/Filed)
310kts
Departed: 16-Jul-19 09:32 PM
Arrived: 16-Jul-19 10:12 PM
Distance/Time
Traveled:
155nm/0:40
Distance/Time
To Go:
Arrived

Flight Plot

Page will automatically refresh every two minutes.


Map Options




Map Legend


Flown Route
Filed Route
Departure Airport
Arrival Airport
Navaid (VOR, NDB)
Fix

Horizontal Profiles

Position Reports

Time Latitude Longitude Heading Altitude Ground
Speed
16-Jul-19 21:18 33.871166 -117.978156 258 97ft 0kts
16-Jul-19 21:19 33.871166 -117.978156 258 97ft 0kts
16-Jul-19 21:20 33.871166 -117.978156 258 97ft 0kts
16-Jul-19 21:21 33.871166 -117.978156 258 97ft 0kts
16-Jul-19 21:22 33.871166 -117.978156 258 97ft 0kts
16-Jul-19 21:23 33.871166 -117.978156 258 97ft 0kts
16-Jul-19 21:24 33.871166 -117.978156 258 97ft 0kts
16-Jul-19 21:25 33.871166 -117.978156 258 97ft 0kts
16-Jul-19 21:26 33.871166 -117.978156 258 97ft 0kts
16-Jul-19 21:27 33.871166 -117.978156 258 97ft 0kts
16-Jul-19 21:28 33.871166 -117.978156 258 97ft 0kts
16-Jul-19 21:29 33.872067 -117.976998 90 98ft 14kts
16-Jul-19 21:30 33.872525 -117.974913 78 100ft 0kts
16-Jul-19 21:31 33.872728 -117.976199 257 99ft 46kts
16-Jul-19 21:32 33.860260 -118.017370 241 1690ft 204kts
16-Jul-19 21:33 33.830537 -118.090147 253 1992ft 247kts
16-Jul-19 21:34 33.850489 -118.158631 287 3716ft 225kts
16-Jul-19 21:35 33.870782 -118.225750 287 7274ft 219kts
16-Jul-19 21:36 33.891590 -118.295332 288 10165ft 229kts
16-Jul-19 21:37 33.914006 -118.368890 288 12790ft 239kts
16-Jul-19 21:38 33.936689 -118.443910 287 15152ft 247kts
16-Jul-19 21:39 33.960307 -118.523401 287 17379ft 255kts
16-Jul-19 21:40 33.984499 -118.605019 287 19431ft 261kts
16-Jul-19 21:41 34.008887 -118.687571 287 21321ft 266kts
16-Jul-19 21:42 34.033841 -118.772194 287 23043ft 272kts
16-Jul-19 21:43 34.059866 -118.860766 287 23924ft 295kts
16-Jul-19 21:44 34.087946 -118.956752 287 23919ft 310kts
16-Jul-19 21:45 34.118565 -119.055710 300 23897ft 320kts
16-Jul-19 21:46 34.168020 -119.145336 301 23916ft 322kts
16-Jul-19 21:47 34.217630 -119.235670 301 23798ft 322kts
16-Jul-19 21:48 34.266562 -119.324702 300 22307ft 315kts
16-Jul-19 21:49 34.314032 -119.411595 300 20786ft 301kts
16-Jul-19 21:50 34.359325 -119.494697 301 19271ft 293kts
16-Jul-19 21:51 34.404017 -119.576796 301 17757ft 291kts
16-Jul-19 21:52 34.448488 -119.658545 301 16244ft 289kts
16-Jul-19 21:53 34.492114 -119.738963 301 14755ft 282kts
16-Jul-19 21:54 34.542313 -119.809509 312 13245ft 275kts
16-Jul-19 21:55 34.596281 -119.873915 313 11744ft 270kts
16-Jul-19 21:56 34.644217 -119.942591 304 10241ft 269kts
16-Jul-19 21:57 34.692203 -120.011359 311 9078ft 260kts
16-Jul-19 21:58 34.738367 -120.072564 311 9074ft 241kts
16-Jul-19 21:59 34.784380 -120.133254 311 9073ft 244kts
16-Jul-19 22:00 34.830246 -120.194373 311 9072ft 243kts
16-Jul-19 22:01 34.878136 -120.256554 316 8178ft 263kts
16-Jul-19 22:02 34.931249 -120.313973 318 6673ft 252kts
16-Jul-19 22:03 34.983406 -120.369733 318 5177ft 248kts
16-Jul-19 22:04 35.031644 -120.421398 318 5075ft 216kts
16-Jul-19 22:05 35.076485 -120.468241 328 3850ft 207kts
16-Jul-19 22:06 35.121423 -120.504071 327 3162ft 172kts
16-Jul-19 22:07 35.162416 -120.536875 327 2510ft 175kts
16-Jul-19 22:08 35.197740 -120.569736 308 1795ft 133kts
16-Jul-19 22:09 35.216392 -120.604049 304 1010ft 118kts
16-Jul-19 22:10 35.234599 -120.636183 305 223ft 102kts
16-Jul-19 22:11 35.239886 -120.644017 35 217ft 0kts
16-Jul-19 22:12 35.239013 -120.642227 125 217ft 24kts
16-Jul-19 22:13 35.238571 -120.639936 89 217ft 0kts
16-Jul-19 22:14 35.238571 -120.639936 89 217ft 0kts
16-Jul-19 22:16 35.238571 -120.639936 89 217ft 0kts
16-Jul-19 22:17 35.238571 -120.639936 89 217ft 0kts
16-Jul-19 22:18 35.238571 -120.639936 89 217ft 0kts
16-Jul-19 22:19 35.238571 -120.639936 89 217ft 0kts
16-Jul-19 22:20 35.238571 -120.639936 89 217ft 0kts
16-Jul-19 22:21 35.238571 -120.639936 89 217ft 0kts
16-Jul-19 22:22 35.238571 -120.639936 89 217ft 0kts

Navigation Log

Ident Type
Flight plan parsing failed, navigation log unavailable